Aviation Digital Data Service (ADDS)

Output produced by METARs form (1521 UTC 20 March 2019)
found at http://www.aviationweather.gov/metar/data/
 
Forecast for: RCSS (SUNGSHAN/TAIPEI , TW)
Text: TAF RCSS 201100Z 2012/2112 28005KT 6000 FEW015 BKN035
Forecast period: 1200 UTC 20 March 2019 to 1200 UTC 21 March 2019
Forecast type: FROM: standard forecast or significant change
Winds: from the W (280 degrees) at 6 MPH (5 knots; 2.6 m/s)
Visibility: 4 miles (6 km)
Ceiling: 3500 feet AGL
Clouds: few clouds at 1500 feet AGL
broken clouds at 3500 feet AGL
Weather: no significant weather forecast for this period
Text: TEMPO 2017/2023 4000 BR SCT008 BKN017 BKN035
Forecast period: 1700 to 2300 UTC 20 March 2019
Forecast type: TEMPORARY: The following changes expected for less than half the time period
Visibility: 2.49 miles (4.01 km)
Ceiling: 1700 feet AGL
Clouds: scattered clouds at 800 feet AGL
broken clouds at 1700 feet AGL
broken clouds at 3500 feet AGL
Weather: BR  (mist)
Text: TEMPO 2103/2108 32006KT
Forecast period: 0300 to 0800 UTC 21 March 2019
Forecast type: TEMPORARY: The following changes expected for less than half the time period
Winds: from the NW (320 degrees) at 7 MPH (6 knots; 3.1 m/s)
Visibility: missing
Ceiling: unknown
Clouds: missing
Weather: no significant weather forecast for this period